createdAt,value
2018-05-09T00:00:04.626Z,19.70
2018-05-09T00:02:32.272Z,19.70
2018-05-09T00:05:00.686Z,19.50
2018-05-09T00:07:28.356Z,19.50
2018-05-09T00:09:55.972Z,19.40
2018-05-09T00:12:23.605Z,19.40
2018-05-09T00:14:51.263Z,19.40
2018-05-09T00:17:18.875Z,19.20
2018-05-09T00:19:51.001Z,19.00
2018-05-09T00:22:18.631Z,19.00
2018-05-09T00:24:46.241Z,19.00
2018-05-09T00:27:13.875Z,19.00
2018-05-09T00:29:41.481Z,19.00
2018-05-09T00:32:09.857Z,19.00
2018-05-09T00:34:37.517Z,18.90
2018-05-09T00:37:05.111Z,18.80
2018-05-09T00:39:32.787Z,18.60
2018-05-09T00:42:00.471Z,18.50
2018-05-09T00:44:28.119Z,18.50
2018-05-09T00:46:55.705Z,18.50
2018-05-09T00:49:23.339Z,18.40
2018-05-09T00:51:50.966Z,18.20
2018-05-09T00:54:35.284Z,18.10
2018-05-09T00:57:02.908Z,18.10
2018-05-09T00:59:30.684Z,18.10
2018-05-09T01:01:58.488Z,18.10
2018-05-09T01:04:26.328Z,18.10
2018-05-09T01:06:54.766Z,18.20
2018-05-09T01:09:23.131Z,18.10
2018-05-09T01:11:51.559Z,18.10
2018-05-09T01:14:19.145Z,18.10
2018-05-09T01:16:49.093Z,18.10
2018-05-09T01:19:21.382Z,18.00
2018-05-09T01:21:51.486Z,17.90
2018-05-09T01:24:23.247Z,17.90
2018-05-09T01:26:53.919Z,17.90
2018-05-09T01:29:23.717Z,17.80
2018-05-09T01:31:54.169Z,17.90
2018-05-09T01:34:25.053Z,17.90
2018-05-09T01:36:55.633Z,17.70
2018-05-09T01:39:25.489Z,17.70
2018-05-09T01:41:56.049Z,17.70
2018-05-09T01:44:26.790Z,17.70
2018-05-09T01:46:56.452Z,17.70
2018-05-09T01:49:28.659Z,17.70
2018-05-09T01:52:00.069Z,17.60
2018-05-09T01:54:30.529Z,17.60
2018-05-09T01:57:01.914Z,17.40
2018-05-09T01:59:31.007Z,17.40
2018-05-09T02:02:00.276Z,17.40
2018-05-09T02:04:30.017Z,17.20
2018-05-09T02:06:59.161Z,17.20
2018-05-09T02:09:28.706Z,17.20
2018-05-09T02:11:59.324Z,17.10
2018-05-09T02:14:30.238Z,17.10
2018-05-09T02:16:59.999Z,17.10
2018-05-09T02:19:29.818Z,17.00
2018-05-09T02:22:00.561Z,17.00
2018-05-09T02:24:32.297Z,17.00
2018-05-09T02:27:03.144Z,16.90
2018-05-09T02:29:33.611Z,16.90
2018-05-09T02:32:03.200Z,16.90
2018-05-09T02:34:32.791Z,16.90
2018-05-09T02:37:05.905Z,16.80
2018-05-09T02:39:35.331Z,16.70
2018-05-09T02:42:05.882Z,16.70
2018-05-09T02:44:36.348Z,16.70
2018-05-09T02:47:09.900Z,16.60
2018-05-09T02:49:40.025Z,16.70
2018-05-09T02:52:09.870Z,16.60
2018-05-09T02:54:39.599Z,16.50
2018-05-09T02:57:09.508Z,16.40
2018-05-09T02:59:39.368Z,16.40
2018-05-09T03:02:09.197Z,16.40
2018-05-09T03:04:40.377Z,16.30
2018-05-09T03:07:11.912Z,16.40
2018-05-09T03:09:42.636Z,16.40
2018-05-09T03:12:13.096Z,16.50
2018-05-09T03:14:43.081Z,16.40
2018-05-09T03:17:13.565Z,16.50
2018-05-09T03:19:45.379Z,16.50
2018-05-09T03:22:15.884Z,16.40
2018-05-09T03:24:47.024Z,16.30
2018-05-09T03:27:17.776Z,16.30
2018-05-09T03:29:52.051Z,16.30
2018-05-09T03:32:22.042Z,16.30
2018-05-09T03:34:51.741Z,16.30
2018-05-09T03:37:22.487Z,16.30
2018-05-09T03:39:51.967Z,16.30
2018-05-09T03:42:21.981Z,16.10
2018-05-09T03:44:51.622Z,16.10
2018-05-09T03:47:21.555Z,16.10
2018-05-09T03:49:51.456Z,16.10
2018-05-09T03:52:21.345Z,16.00
2018-05-09T03:54:51.987Z,16.00
2018-05-09T03:57:21.684Z,16.00
2018-05-09T03:59:52.369Z,15.90
2018-05-09T04:02:39.786Z,15.90
2018-05-09T04:05:20.720Z,15.80
2018-05-09T04:08:02.479Z,15.80
2018-05-09T04:10:33.800Z,15.80
2018-05-09T04:13:04.675Z,15.80
2018-05-09T04:15:35.864Z,15.80
2018-05-09T04:18:06.944Z,15.80
2018-05-09T04:20:36.898Z,15.70
2018-05-09T04:23:07.438Z,15.70
2018-05-09T04:25:37.937Z,15.60
2018-05-09T04:28:07.697Z,15.70
2018-05-09T04:30:39.405Z,15.70
2018-05-09T04:33:09.288Z,15.80
2018-05-09T04:35:40.056Z,15.80
2018-05-09T04:38:09.870Z,15.80
2018-05-09T04:40:40.859Z,15.80
2018-05-09T04:43:10.742Z,15.80
2018-05-09T04:45:41.411Z,15.70
2018-05-09T04:48:11.075Z,15.70
2018-05-09T04:50:40.985Z,15.70
2018-05-09T04:53:10.678Z,15.70
2018-05-09T04:55:40.700Z,15.70
2018-05-09T04:58:11.171Z,15.90
2018-05-09T05:00:41.804Z,16.00
2018-05-09T05:03:14.288Z,15.90
2018-05-09T05:05:44.142Z,16.00
2018-05-09T05:08:13.830Z,16.00
2018-05-09T05:10:43.552Z,16.10
2018-05-09T05:13:17.889Z,16.20
2018-05-09T05:15:48.357Z,16.30
2018-05-09T05:18:22.662Z,16.30
2018-05-09T05:20:53.690Z,16.30
2018-05-09T05:23:24.342Z,16.40
2018-05-09T05:25:55.235Z,16.50
2018-05-09T05:28:24.952Z,16.40
2018-05-09T05:30:54.577Z,16.50
2018-05-09T05:33:25.427Z,16.60
2018-05-09T05:35:56.370Z,16.70
2018-05-09T05:38:27.917Z,16.90
2018-05-09T05:40:57.454Z,16.80
2018-05-09T05:43:28.152Z,17.10
2018-05-09T05:45:56.485Z,17.00
2018-05-09T05:48:26.602Z,17.20
2018-05-09T05:50:56.091Z,17.30
2018-05-09T05:53:26.644Z,17.50
2018-05-09T05:55:56.372Z,17.50
2018-05-09T05:58:25.405Z,17.60
2018-05-09T06:00:54.702Z,17.70
2018-05-09T06:03:24.055Z,17.70
2018-05-09T06:05:53.687Z,17.80
2018-05-09T06:08:22.868Z,17.90
2018-05-09T06:10:51.529Z,18.00
2018-05-09T06:13:21.525Z,18.00
2018-05-09T06:15:52.063Z,18.20
2018-05-09T06:18:21.790Z,18.10
2018-05-09T06:20:51.831Z,18.20
2018-05-09T06:23:22.497Z,18.30
2018-05-09T06:25:50.943Z,18.40
2018-05-09T06:28:20.957Z,18.40
2018-05-09T06:30:50.510Z,18.50
2018-05-09T06:33:19.618Z,18.60
2018-05-09T06:35:50.847Z,18.80
2018-05-09T06:38:19.070Z,18.70
2018-05-09T06:40:48.528Z,18.80
2018-05-09T06:43:18.560Z,19.00
2018-05-09T06:45:48.234Z,19.20
2018-05-09T06:48:17.360Z,19.20
2018-05-09T06:50:48.514Z,19.40
2018-05-09T06:53:17.517Z,19.40
2018-05-09T06:55:46.851Z,19.40
2018-05-09T06:58:16.131Z,19.60
2018-05-09T07:00:45.663Z,19.60
2018-05-09T07:03:15.374Z,19.70
2018-05-09T07:05:45.548Z,19.70
2018-05-09T07:08:15.327Z,19.70
2018-05-09T07:10:44.361Z,19.70
2018-05-09T07:13:13.447Z,19.80
2018-05-09T07:15:43.674Z,19.90
2018-05-09T07:18:13.846Z,20.30
2018-05-09T07:20:42.603Z,20.20
2018-05-09T07:23:12.967Z,20.50
2018-05-09T07:25:41.908Z,20.70
2018-05-09T07:28:11.167Z,21.10
2018-05-09T07:30:40.914Z,21.10
2018-05-09T07:33:09.366Z,21.20
2018-05-09T07:35:37.611Z,21.30
2018-05-09T07:38:06.281Z,21.40
2018-05-09T07:40:35.708Z,21.50
2018-05-09T07:43:06.035Z,21.30
2018-05-09T07:45:35.400Z,21.30
2018-05-09T07:48:04.630Z,21.30
2018-05-09T07:50:34.277Z,21.40
2018-05-09T07:53:03.686Z,21.50
2018-05-09T07:55:33.282Z,21.70
2018-05-09T07:58:02.089Z,21.70
2018-05-09T08:00:31.327Z,21.80
2018-05-09T08:03:00.563Z,22.00
2018-05-09T08:05:30.045Z,22.20
2018-05-09T08:07:59.330Z,22.40
2018-05-09T08:10:30.555Z,22.60
2018-05-09T08:12:59.567Z,22.70
2018-05-09T08:15:30.047Z,22.70
2018-05-09T08:18:00.273Z,22.70
2018-05-09T08:20:29.375Z,22.80
2018-05-09T08:22:58.498Z,22.90
2018-05-09T08:25:27.599Z,23.40
2018-05-09T08:27:57.857Z,23.70
2018-05-09T08:30:29.184Z,23.60
2018-05-09T08:32:58.382Z,23.80
2018-05-09T08:35:28.014Z,23.80
2018-05-09T08:37:58.063Z,23.80
2018-05-09T08:40:31.034Z,24.00
2018-05-09T08:43:00.566Z,24.10
2018-05-09T08:45:31.557Z,24.20
2018-05-09T08:48:01.030Z,24.40
2018-05-09T08:50:30.537Z,24.50
2018-05-09T08:53:03.434Z,24.70
2018-05-09T08:55:33.032Z,24.70
2018-05-09T08:58:02.623Z,24.70
2018-05-09T09:00:32.250Z,24.70
2018-05-09T09:03:03.333Z,25.00
2018-05-09T09:05:34.979Z,25.00
2018-05-09T09:08:04.104Z,25.30
2018-05-09T09:10:33.582Z,25.40
2018-05-09T09:13:04.706Z,25.60
2018-05-09T09:15:34.401Z,25.50
2018-05-09T09:18:03.904Z,25.40
2018-05-09T09:20:36.401Z,25.60
2018-05-09T09:23:05.627Z,25.60
2018-05-09T09:25:34.437Z,25.90
2018-05-09T09:28:02.939Z,26.30
2018-05-09T09:30:31.750Z,26.70
2018-05-09T09:33:00.932Z,26.00
2018-05-09T09:35:29.252Z,26.00
2018-05-09T09:37:58.031Z,25.90
2018-05-09T09:40:27.433Z,25.90
2018-05-09T09:42:57.689Z,26.20
2018-05-09T09:45:26.996Z,26.10
2018-05-09T09:47:56.972Z,26.40
2018-05-09T09:50:26.631Z,26.70
2018-05-09T09:53:07.655Z,26.70
2018-05-09T09:55:37.867Z,26.90
2018-05-09T09:58:07.887Z,27.20
2018-05-09T10:00:36.495Z,27.10
2018-05-09T10:03:06.001Z,27.10
2018-05-09T10:05:35.420Z,27.00
2018-05-09T10:08:05.901Z,27.10
2018-05-09T10:10:37.981Z,27.10
2018-05-09T10:13:08.066Z,27.70
2018-05-09T10:15:39.664Z,27.60
2018-05-09T10:18:09.318Z,27.50
2018-05-09T10:20:38.690Z,27.30
2018-05-09T10:23:08.790Z,27.10
2018-05-09T10:25:39.708Z,27.30
2018-05-09T10:28:10.063Z,27.40
2018-05-09T10:30:38.701Z,27.50
2018-05-09T10:33:07.870Z,27.50
2018-05-09T10:35:37.113Z,27.60
2018-05-09T10:38:05.916Z,27.80
2018-05-09T10:40:37.574Z,27.50
2018-05-09T10:43:07.481Z,27.80
2018-05-09T10:45:38.943Z,27.80
2018-05-09T10:48:10.572Z,28.10
2018-05-09T10:50:40.892Z,28.00
2018-05-09T10:53:10.414Z,28.30
2018-05-09T10:55:42.388Z,28.80
2018-05-09T10:58:12.092Z,28.70
2018-05-09T11:00:42.566Z,29.00
2018-05-09T11:03:12.766Z,29.00
2018-05-09T11:05:42.933Z,29.10
2018-05-09T11:08:14.788Z,29.10
2018-05-09T11:10:44.630Z,29.10
2018-05-09T11:13:14.568Z,28.60
2018-05-09T11:15:45.060Z,28.60
2018-05-09T11:18:13.987Z,28.80
2018-05-09T11:20:45.474Z,29.00
2018-05-09T11:23:14.785Z,29.20
2018-05-09T11:25:44.242Z,29.40
2018-05-09T11:28:14.770Z,29.50
2018-05-09T11:30:44.630Z,29.40
2018-05-09T11:33:13.213Z,29.40
2018-05-09T11:35:42.825Z,29.30
2018-05-09T11:38:13.115Z,29.40
2018-05-09T11:40:41.688Z,29.50
2018-05-09T11:43:11.091Z,29.60
2018-05-09T11:45:39.628Z,29.60
2018-05-09T11:48:09.348Z,28.80
2018-05-09T11:50:38.643Z,28.80
2018-05-09T11:53:07.119Z,28.40
2018-05-09T11:55:36.498Z,28.10
2018-05-09T11:58:05.814Z,28.00
2018-05-09T12:00:34.682Z,27.90
2018-05-09T12:03:04.166Z,28.30
2018-05-09T12:05:34.116Z,28.30
2018-05-09T12:08:03.181Z,28.40
2018-05-09T12:10:32.438Z,28.20
2018-05-09T12:13:01.729Z,28.30
2018-05-09T12:15:31.063Z,28.30
2018-05-09T12:18:00.516Z,28.40
2018-05-09T12:20:29.999Z,28.40
2018-05-09T12:22:59.709Z,28.50
2018-05-09T12:25:30.301Z,29.00
2018-05-09T12:27:59.363Z,29.00
2018-05-09T12:30:28.893Z,29.00
2018-05-09T12:32:58.457Z,28.40
2018-05-09T12:35:29.275Z,28.30
2018-05-09T12:37:59.408Z,28.30
2018-05-09T12:40:29.915Z,28.10
2018-05-09T12:42:59.168Z,28.10
2018-05-09T12:45:28.806Z,28.40
2018-05-09T12:47:58.234Z,28.40
2018-05-09T12:50:27.696Z,28.30
2018-05-09T12:52:58.486Z,28.30
2018-05-09T12:55:27.434Z,28.30
2018-05-09T12:57:56.800Z,28.20
2018-05-09T13:00:25.605Z,28.30
2018-05-09T13:02:54.196Z,28.50
2018-05-09T13:05:23.134Z,28.60
2018-05-09T13:07:51.917Z,28.80
2018-05-09T13:10:21.141Z,28.80
2018-05-09T13:12:51.290Z,28.80
2018-05-09T13:15:20.935Z,28.80
2018-05-09T13:17:50.323Z,28.80
2018-05-09T13:20:19.145Z,28.90
2018-05-09T13:22:48.467Z,28.90
2018-05-09T13:25:17.722Z,28.90
2018-05-09T13:27:47.214Z,28.90
2018-05-09T13:30:21.317Z,28.90
2018-05-09T13:32:52.802Z,28.80
2018-05-09T13:35:23.148Z,28.70
2018-05-09T13:37:53.187Z,28.50
2018-05-09T13:40:24.314Z,27.90
2018-05-09T13:42:53.583Z,27.90
2018-05-09T13:45:22.538Z,27.90
2018-05-09T13:47:52.260Z,28.00
2018-05-09T13:50:21.335Z,28.00
2018-05-09T13:52:50.867Z,28.00
2018-05-09T13:55:22.287Z,27.90
2018-05-09T13:57:52.494Z,28.10
2018-05-09T14:00:23.314Z,28.20
2018-05-09T14:02:52.174Z,28.10
2018-05-09T14:05:20.795Z,28.00
2018-05-09T14:07:50.534Z,27.90
2018-05-09T14:10:19.709Z,27.80
2018-05-09T14:12:49.194Z,27.70
2018-05-09T14:15:18.005Z,27.70
2018-05-09T14:17:46.899Z,27.60
2018-05-09T14:20:16.480Z,27.50
2018-05-09T14:22:45.098Z,27.50
2018-05-09T14:25:14.545Z,27.40
2018-05-09T14:27:42.834Z,27.40
2018-05-09T14:30:11.263Z,27.40
2018-05-09T14:32:40.372Z,27.50
2018-05-09T14:35:09.926Z,27.70
2018-05-09T14:37:39.470Z,27.70
2018-05-09T14:40:08.556Z,27.90
2018-05-09T14:42:38.154Z,28.00
2018-05-09T14:45:07.226Z,28.00
2018-05-09T14:47:36.173Z,28.10
2018-05-09T14:50:05.694Z,28.00
2018-05-09T14:52:36.081Z,27.90
2018-05-09T14:55:07.305Z,27.80
2018-05-09T14:57:35.750Z,27.60
2018-05-09T15:00:06.496Z,27.40
2018-05-09T15:02:35.869Z,27.30
2018-05-09T15:05:05.278Z,27.30
2018-05-09T15:07:35.523Z,27.40
2018-05-09T15:10:05.012Z,27.30
2018-05-09T15:12:35.204Z,27.50
2018-05-09T15:15:05.662Z,27.50
2018-05-09T15:17:34.809Z,27.60
2018-05-09T15:20:04.093Z,27.70
2018-05-09T15:22:33.082Z,27.80
2018-05-09T15:25:02.689Z,27.80
2018-05-09T15:27:31.167Z,27.50
2018-05-09T15:29:59.963Z,27.10
2018-05-09T15:32:28.721Z,26.90
2018-05-09T15:34:58.648Z,27.00
2018-05-09T15:37:27.077Z,27.00
2018-05-09T15:39:56.279Z,26.90
2018-05-09T15:42:25.394Z,26.80
2018-05-09T15:44:55.259Z,27.10
2018-05-09T15:47:24.636Z,27.00
2018-05-09T15:49:53.199Z,27.30
2018-05-09T15:52:26.559Z,27.50
2018-05-09T15:54:55.518Z,27.50
2018-05-09T15:57:30.126Z,27.50
2018-05-09T16:00:00.959Z,27.60
2018-05-09T16:02:29.551Z,27.60
2018-05-09T16:05:00.746Z,27.80
2018-05-09T16:07:29.350Z,27.70
2018-05-09T16:09:58.554Z,27.70
2018-05-09T16:12:28.698Z,27.70
2018-05-09T16:14:59.663Z,27.70
2018-05-09T16:17:29.092Z,27.60
2018-05-09T16:19:57.633Z,27.70
2018-05-09T16:22:28.804Z,27.70
2018-05-09T16:24:57.840Z,27.70
2018-05-09T16:27:27.609Z,27.70
2018-05-09T16:29:57.788Z,27.60
2018-05-09T16:32:27.106Z,27.50
2018-05-09T16:35:01.331Z,27.50
2018-05-09T16:37:30.829Z,27.50
2018-05-09T16:40:00.642Z,27.50
2018-05-09T16:42:30.739Z,27.30
2018-05-09T16:45:00.009Z,27.30
2018-05-09T16:47:29.615Z,27.30
2018-05-09T16:50:01.294Z,27.30
2018-05-09T16:52:30.966Z,27.30
2018-05-09T16:55:01.506Z,27.40
2018-05-09T16:57:31.394Z,27.40
2018-05-09T17:00:02.612Z,27.40
2018-05-09T17:02:33.032Z,27.40
2018-05-09T17:05:02.611Z,27.40
2018-05-09T17:07:32.241Z,27.40
2018-05-09T17:10:02.064Z,27.40
2018-05-09T17:12:37.223Z,27.30
2018-05-09T17:15:07.581Z,27.20
2018-05-09T17:17:40.699Z,27.20
2018-05-09T17:20:10.437Z,27.20
2018-05-09T17:22:40.959Z,27.20
2018-05-09T17:25:10.696Z,27.10
2018-05-09T17:27:40.940Z,27.00
2018-05-09T17:30:09.568Z,27.00
2018-05-09T17:32:38.693Z,26.90
2018-05-09T17:35:07.035Z,26.80
2018-05-09T17:37:36.646Z,26.70
2018-05-09T17:40:06.139Z,26.60
2018-05-09T17:42:35.874Z,26.60
2018-05-09T17:45:06.207Z,26.50
2018-05-09T17:47:35.846Z,26.50
2018-05-09T17:50:05.153Z,26.40
2018-05-09T17:52:35.249Z,26.30
2018-05-09T17:55:05.013Z,26.30
2018-05-09T17:57:32.707Z,26.20
2018-05-09T18:00:00.329Z,26.20
2018-05-09T18:02:28.113Z,26.10
2018-05-09T18:04:55.825Z,26.10
2018-05-09T18:07:25.606Z,26.00
2018-05-09T18:09:55.221Z,26.00
2018-05-09T18:12:24.216Z,26.00
2018-05-09T18:14:54.767Z,26.00
2018-05-09T18:17:23.899Z,25.90
2018-05-09T18:19:53.304Z,25.80
2018-05-09T18:22:24.152Z,25.80
2018-05-09T18:24:54.851Z,25.70
2018-05-09T18:27:25.186Z,25.70
2018-05-09T18:29:55.074Z,25.60
2018-05-09T18:32:26.351Z,25.60
2018-05-09T18:35:05.753Z,25.50
2018-05-09T18:37:35.715Z,25.50
2018-05-09T18:40:06.397Z,25.30
2018-05-09T18:42:36.878Z,25.30
2018-05-09T18:45:06.758Z,25.30
2018-05-09T18:47:38.105Z,25.20
2018-05-09T18:50:09.029Z,25.20
2018-05-09T18:52:39.160Z,25.20
2018-05-09T18:55:10.763Z,25.10
2018-05-09T18:57:40.557Z,25.10
2018-05-09T19:00:12.163Z,25.10
2018-05-09T19:02:41.757Z,25.00
2018-05-09T19:05:11.870Z,25.00
2018-05-09T19:07:44.447Z,24.90
2018-05-09T19:10:13.256Z,24.90
2018-05-09T19:12:42.619Z,24.80
2018-05-09T19:15:12.432Z,24.70
2018-05-09T19:17:42.267Z,24.50
2018-05-09T19:20:11.589Z,24.30
2018-05-09T19:25:16.564Z,23.80
2018-05-09T19:27:46.722Z,23.70
2018-05-09T19:30:17.213Z,23.70
2018-05-09T19:32:47.574Z,23.50
2018-05-09T19:35:16.924Z,23.50
2018-05-09T19:37:46.108Z,23.40
2018-05-09T19:40:15.917Z,23.40
2018-05-09T19:42:45.749Z,23.40
2018-05-09T19:45:18.671Z,23.20
2018-05-09T19:47:49.188Z,23.10
2018-05-09T19:50:20.029Z,23.10
2018-05-09T19:52:49.558Z,23.20
2018-05-09T19:55:20.446Z,23.10
2018-05-09T19:57:51.231Z,23.00
2018-05-09T20:00:20.477Z,22.90
2018-05-09T20:02:50.165Z,22.70
2018-05-09T20:05:19.310Z,22.80
2018-05-09T20:07:49.979Z,22.80
2018-05-09T20:10:19.718Z,22.70
2018-05-09T20:12:49.666Z,22.80
2018-05-09T20:15:20.767Z,22.60
2018-05-09T20:17:50.847Z,22.60
2018-05-09T20:20:21.468Z,22.60
2018-05-09T20:22:51.963Z,22.60
2018-05-09T20:25:22.298Z,22.60
2018-05-09T20:27:55.379Z,22.70
2018-05-09T20:30:30.150Z,22.80
2018-05-09T20:33:00.467Z,22.90
2018-05-09T20:35:30.335Z,22.90
2018-05-09T20:37:59.720Z,22.90
2018-05-09T20:40:28.973Z,22.90
2018-05-09T20:42:58.362Z,22.90
2018-05-09T20:45:28.137Z,22.90
2018-05-09T20:47:59.125Z,23.00
2018-05-09T20:50:28.766Z,22.90
2018-05-09T20:52:58.171Z,23.00
2018-05-09T20:55:30.165Z,22.90
2018-05-09T20:57:59.841Z,22.90
2018-05-09T21:00:28.815Z,22.80
2018-05-09T21:02:56.570Z,22.90
2018-05-09T21:05:27.595Z,22.90
2018-05-09T21:07:56.333Z,22.90
2018-05-09T21:10:23.933Z,22.90
2018-05-09T21:12:53.735Z,22.90
2018-05-09T21:15:21.368Z,23.00
2018-05-09T21:17:49.177Z,22.90
2018-05-09T21:20:16.769Z,22.90
2018-05-09T21:22:44.432Z,22.80
2018-05-09T21:25:12.826Z,22.70
2018-05-09T21:27:40.440Z,22.70
2018-05-09T21:30:08.086Z,22.70
2018-05-09T21:32:35.670Z,22.70
2018-05-09T21:35:03.284Z,22.60
2018-05-09T21:37:30.914Z,22.60
2018-05-09T21:39:58.494Z,22.60
2018-05-09T21:42:26.882Z,22.70
2018-05-09T21:44:54.459Z,22.70
2018-05-09T21:47:22.092Z,22.70
2018-05-09T21:49:50.519Z,22.70
2018-05-09T21:52:18.102Z,22.70
2018-05-09T21:54:45.694Z,22.50
2018-05-09T21:57:13.315Z,22.40
2018-05-09T21:59:40.925Z,22.30
2018-05-09T22:02:09.256Z,22.20
2018-05-09T22:04:36.872Z,22.20
2018-05-09T22:07:04.487Z,22.20
2018-05-09T22:09:32.097Z,22.10
2018-05-09T22:11:59.738Z,21.90
2018-05-09T22:14:28.088Z,21.60
2018-05-09T22:16:55.718Z,21.60
2018-05-09T22:19:24.120Z,21.70
2018-05-09T22:21:51.702Z,21.70
2018-05-09T22:24:19.335Z,21.70
2018-05-09T22:26:48.376Z,21.40
2018-05-09T22:29:16.574Z,21.40
2018-05-09T22:31:44.214Z,21.40
2018-05-09T22:34:12.589Z,21.20
2018-05-09T22:36:40.205Z,21.20
2018-05-09T22:39:07.789Z,21.10
2018-05-09T22:41:35.370Z,21.00
2018-05-09T22:44:02.984Z,21.00
2018-05-09T22:46:30.592Z,21.00
2018-05-09T22:48:58.177Z,20.90
2018-05-09T22:51:25.815Z,20.90
2018-05-09T22:53:54.204Z,20.50
2018-05-09T22:56:22.605Z,20.30
2018-05-09T22:58:50.537Z,20.30
2018-05-09T23:01:18.947Z,20.10
2018-05-09T23:03:46.534Z,20.10
2018-05-09T23:06:14.159Z,20.10
2018-05-09T23:08:42.520Z,19.80
2018-05-09T23:11:10.154Z,19.80
2018-05-09T23:13:37.741Z,19.70
2018-05-09T23:16:05.382Z,19.70
2018-05-09T23:18:32.967Z,19.80
2018-05-09T23:21:00.560Z,19.80
2018-05-09T23:23:28.177Z,19.90
2018-05-09T23:25:55.772Z,19.80
2018-05-09T23:28:23.423Z,19.80
2018-05-09T23:30:51.792Z,19.90
2018-05-09T23:33:20.151Z,19.90
2018-05-09T23:35:47.797Z,19.90
2018-05-09T23:38:15.374Z,19.90
2018-05-09T23:40:43.069Z,19.90
2018-05-09T23:43:10.632Z,19.80
2018-05-09T23:45:38.979Z,19.70
2018-05-09T23:48:06.626Z,19.70
2018-05-09T23:50:34.222Z,19.80
2018-05-09T23:53:01.814Z,19.70
2018-05-09T23:55:29.435Z,19.70
2018-05-09T23:57:57.071Z,19.70
